sensor_id;sensor_type;location;lat;lon;timestamp;P1;durP1;ratioP1;P2;durP2;ratioP2
12177;SDS011;6152;48.728;9.256;2023-02-28T00:00:24;1.47;;;1.33;;
12177;SDS011;6152;48.728;9.256;2023-02-28T00:02:51;3.40;;;1.80;;
12177;SDS011;6152;48.728;9.256;2023-02-28T00:05:19;3.10;;;1.70;;
12177;SDS011;6152;48.728;9.256;2023-02-28T00:07:47;3.83;;;1.50;;
12177;SDS011;6152;48.728;9.256;2023-02-28T00:10:21;2.63;;;1.90;;
12177;SDS011;6152;48.728;9.256;2023-02-28T00:12:49;1.83;;;1.60;;
12177;SDS011;6152;48.728;9.256;2023-02-28T00:15:17;1.90;;;1.60;;
12177;SDS011;6152;48.728;9.256;2023-02-28T00:17:43;3.93;;;1.87;;
12177;SDS011;6152;48.728;9.256;2023-02-28T00:20:10;2.27;;;1.60;;
12177;SDS011;6152;48.728;9.256;2023-02-28T00:22:37;1.70;;;1.40;;
12177;SDS011;6152;48.728;9.256;2023-02-28T00:25:05;1.83;;;1.50;;
12177;SDS011;6152;48.728;9.256;2023-02-28T00:27:33;2.73;;;1.50;;
12177;SDS011;6152;48.728;9.256;2023-02-28T00:30:00;2.60;;;1.33;;
12177;SDS011;6152;48.728;9.256;2023-02-28T00:32:26;2.30;;;1.47;;
12177;SDS011;6152;48.728;9.256;2023-02-28T00:34:52;3.40;;;1.70;;
12177;SDS011;6152;48.728;9.256;2023-02-28T00:37:18;3.40;;;1.60;;
12177;SDS011;6152;48.728;9.256;2023-02-28T00:39:45;2.80;;;1.40;;
12177;SDS011;6152;48.728;9.256;2023-02-28T00:42:11;2.13;;;1.83;;
12177;SDS011;6152;48.728;9.256;2023-02-28T00:44:37;4.67;;;2.03;;
12177;SDS011;6152;48.728;9.256;2023-02-28T00:47:03;3.10;;;1.70;;
12177;SDS011;6152;48.728;9.256;2023-02-28T00:49:29;2.07;;;1.50;;
12177;SDS011;6152;48.728;9.256;2023-02-28T00:51:56;2.70;;;1.57;;
12177;SDS011;6152;48.728;9.256;2023-02-28T00:54:22;1.90;;;1.80;;
12177;SDS011;6152;48.728;9.256;2023-02-28T00:56:49;1.67;;;1.27;;
12177;SDS011;6152;48.728;9.256;2023-02-28T00:59:16;2.53;;;1.60;;
12177;SDS011;6152;48.728;9.256;2023-02-28T01:01:43;2.27;;;1.87;;
12177;SDS011;6152;48.728;9.256;2023-02-28T01:04:10;1.87;;;1.63;;
12177;SDS011;6152;48.728;9.256;2023-02-28T01:06:37;2.20;;;1.67;;
12177;SDS011;6152;48.728;9.256;2023-02-28T01:09:04;2.93;;;1.97;;
12177;SDS011;6152;48.728;9.256;2023-02-28T01:11:31;2.23;;;1.90;;
12177;SDS011;6152;48.728;9.256;2023-02-28T01:13:58;2.83;;;1.97;;
12177;SDS011;6152;48.728;9.256;2023-02-28T01:16:25;2.43;;;2.00;;
12177;SDS011;6152;48.728;9.256;2023-02-28T01:18:52;3.20;;;2.03;;
12177;SDS011;6152;48.728;9.256;2023-02-28T01:21:19;2.70;;;1.90;;
12177;SDS011;6152;48.728;9.256;2023-02-28T01:23:46;4.27;;;1.70;;
12177;SDS011;6152;48.728;9.256;2023-02-28T01:26:14;4.10;;;2.10;;
12177;SDS011;6152;48.728;9.256;2023-02-28T01:28:41;2.43;;;1.80;;
12177;SDS011;6152;48.728;9.256;2023-02-28T01:31:08;2.63;;;2.10;;
12177;SDS011;6152;48.728;9.256;2023-02-28T01:33:35;2.20;;;2.00;;
12177;SDS011;6152;48.728;9.256;2023-02-28T01:36:03;1.70;;;1.60;;
12177;SDS011;6152;48.728;9.256;2023-02-28T01:38:32;3.40;;;2.13;;
12177;SDS011;6152;48.728;9.256;2023-02-28T01:40:58;4.50;;;2.27;;
12177;SDS011;6152;48.728;9.256;2023-02-28T01:43:26;3.17;;;2.20;;
12177;SDS011;6152;48.728;9.256;2023-02-28T01:45:55;2.53;;;2.03;;
12177;SDS011;6152;48.728;9.256;2023-02-28T01:48:29;2.17;;;1.90;;
12177;SDS011;6152;48.728;9.256;2023-02-28T01:51:04;2.50;;;1.90;;
12177;SDS011;6152;48.728;9.256;2023-02-28T01:53:41;3.93;;;2.03;;
12177;SDS011;6152;48.728;9.256;2023-02-28T01:56:12;4.13;;;2.23;;
12177;SDS011;6152;48.728;9.256;2023-02-28T01:58:46;5.00;;;2.40;;
12177;SDS011;6152;48.728;9.256;2023-02-28T02:01:13;3.17;;;1.97;;
12177;SDS011;6152;48.728;9.256;2023-02-28T02:03:47;2.77;;;2.10;;
12177;SDS011;6152;48.728;9.256;2023-02-28T02:06:20;3.80;;;2.80;;
12177;SDS011;6152;48.728;9.256;2023-02-28T02:08:47;4.00;;;2.40;;
12177;SDS011;6152;48.728;9.256;2023-02-28T02:11:13;3.30;;;2.53;;
12177;SDS011;6152;48.728;9.256;2023-02-28T02:16:30;5.37;;;2.83;;
12177;SDS011;6152;48.728;9.256;2023-02-28T02:30:19;4.13;;;2.57;;
12177;SDS011;6152;48.728;9.256;2023-02-28T02:43:34;5.10;;;2.87;;
12177;SDS011;6152;48.728;9.256;2023-02-28T02:46:06;2.87;;;2.60;;
12177;SDS011;6152;48.728;9.256;2023-02-28T02:48:40;4.47;;;2.90;;
12177;SDS011;6152;48.728;9.256;2023-02-28T02:51:11;3.77;;;2.27;;
12177;SDS011;6152;48.728;9.256;2023-02-28T02:53:49;2.97;;;2.47;;
12177;SDS011;6152;48.728;9.256;2023-02-28T02:56:19;2.50;;;2.10;;
12177;SDS011;6152;48.728;9.256;2023-02-28T02:58:49;5.57;;;2.80;;
12177;SDS011;6152;48.728;9.256;2023-02-28T03:01:21;4.60;;;2.80;;
12177;SDS011;6152;48.728;9.256;2023-02-28T03:04:03;3.53;;;2.17;;
12177;SDS011;6152;48.728;9.256;2023-02-28T03:06:35;4.03;;;2.53;;
12177;SDS011;6152;48.728;9.256;2023-02-28T03:09:01;3.97;;;2.40;;
12177;SDS011;6152;48.728;9.256;2023-02-28T03:11:29;3.63;;;2.70;;
12177;SDS011;6152;48.728;9.256;2023-02-28T03:25:41;4.80;;;3.07;;
12177;SDS011;6152;48.728;9.256;2023-02-28T03:28:22;4.23;;;2.93;;
12177;SDS011;6152;48.728;9.256;2023-02-28T03:31:15;3.90;;;2.60;;
12177;SDS011;6152;48.728;9.256;2023-02-28T03:36:44;5.70;;;3.30;;
12177;SDS011;6152;48.728;9.256;2023-02-28T03:39:16;3.47;;;2.50;;
12177;SDS011;6152;48.728;9.256;2023-02-28T03:41:54;4.70;;;3.40;;
12177;SDS011;6152;48.728;9.256;2023-02-28T03:44:30;3.00;;;2.70;;
12177;SDS011;6152;48.728;9.256;2023-02-28T03:47:08;4.10;;;3.03;;
12177;SDS011;6152;48.728;9.256;2023-02-28T03:49:40;6.00;;;3.23;;
12177;SDS011;6152;48.728;9.256;2023-02-28T03:52:12;3.90;;;2.63;;
12177;SDS011;6152;48.728;9.256;2023-02-28T03:54:46;4.70;;;3.30;;
12177;SDS011;6152;48.728;9.256;2023-02-28T03:57:37;4.30;;;3.03;;
12177;SDS011;6152;48.728;9.256;2023-02-28T04:00:10;4.60;;;3.10;;
12177;SDS011;6152;48.728;9.256;2023-02-28T04:02:46;4.33;;;2.80;;
12177;SDS011;6152;48.728;9.256;2023-02-28T04:05:17;3.50;;;2.90;;
12177;SDS011;6152;48.728;9.256;2023-02-28T04:07:47;4.67;;;3.20;;
12177;SDS011;6152;48.728;9.256;2023-02-28T04:10:13;3.47;;;2.87;;
12177;SDS011;6152;48.728;9.256;2023-02-28T04:12:41;4.17;;;3.00;;
12177;SDS011;6152;48.728;9.256;2023-02-28T04:15:07;3.53;;;2.73;;
12177;SDS011;6152;48.728;9.256;2023-02-28T04:17:35;5.07;;;2.87;;
12177;SDS011;6152;48.728;9.256;2023-02-28T04:20:01;3.83;;;2.60;;
12177;SDS011;6152;48.728;9.256;2023-02-28T04:22:34;3.93;;;2.93;;
12177;SDS011;6152;48.728;9.256;2023-02-28T04:25:00;3.93;;;3.13;;
12177;SDS011;6152;48.728;9.256;2023-02-28T04:27:26;4.47;;;2.77;;
12177;SDS011;6152;48.728;9.256;2023-02-28T04:29:52;3.83;;;3.00;;
12177;SDS011;6152;48.728;9.256;2023-02-28T04:32:19;3.93;;;2.90;;
12177;SDS011;6152;48.728;9.256;2023-02-28T04:34:45;4.63;;;2.77;;
12177;SDS011;6152;48.728;9.256;2023-02-28T04:37:11;4.50;;;2.77;;
12177;SDS011;6152;48.728;9.256;2023-02-28T04:39:37;3.57;;;2.87;;
12177;SDS011;6152;48.728;9.256;2023-02-28T04:42:04;4.43;;;2.87;;
12177;SDS011;6152;48.728;9.256;2023-02-28T04:44:30;5.17;;;3.20;;
12177;SDS011;6152;48.728;9.256;2023-02-28T04:46:56;5.83;;;3.30;;
12177;SDS011;6152;48.728;9.256;2023-02-28T04:49:22;3.23;;;2.93;;
12177;SDS011;6152;48.728;9.256;2023-02-28T04:51:48;5.23;;;2.87;;
12177;SDS011;6152;48.728;9.256;2023-02-28T04:54:15;3.70;;;3.10;;
12177;SDS011;6152;48.728;9.256;2023-02-28T04:56:42;4.67;;;3.33;;
12177;SDS011;6152;48.728;9.256;2023-02-28T04:59:08;5.00;;;3.33;;
12177;SDS011;6152;48.728;9.256;2023-02-28T05:01:35;4.33;;;3.50;;
12177;SDS011;6152;48.728;9.256;2023-02-28T05:04:02;5.03;;;3.00;;
12177;SDS011;6152;48.728;9.256;2023-02-28T05:06:30;4.33;;;3.30;;
12177;SDS011;6152;48.728;9.256;2023-02-28T05:08:57;6.33;;;3.33;;
12177;SDS011;6152;48.728;9.256;2023-02-28T05:11:27;7.07;;;4.00;;
12177;SDS011;6152;48.728;9.256;2023-02-28T05:13:59;4.57;;;3.50;;
12177;SDS011;6152;48.728;9.256;2023-02-28T05:16:29;5.20;;;3.47;;
12177;SDS011;6152;48.728;9.256;2023-02-28T05:18:56;7.03;;;3.40;;
12177;SDS011;6152;48.728;9.256;2023-02-28T05:21:24;5.03;;;3.30;;
12177;SDS011;6152;48.728;9.256;2023-02-28T05:23:52;4.60;;;3.47;;
12177;SDS011;6152;48.728;9.256;2023-02-28T05:26:19;8.00;;;3.43;;
12177;SDS011;6152;48.728;9.256;2023-02-28T05:28:46;4.47;;;3.43;;
12177;SDS011;6152;48.728;9.256;2023-02-28T05:31:12;4.77;;;3.70;;
12177;SDS011;6152;48.728;9.256;2023-02-28T05:33:38;6.03;;;3.77;;
12177;SDS011;6152;48.728;9.256;2023-02-28T05:36:05;6.63;;;3.80;;
12177;SDS011;6152;48.728;9.256;2023-02-28T05:38:32;6.73;;;3.83;;
12177;SDS011;6152;48.728;9.256;2023-02-28T05:40:58;4.77;;;3.43;;
12177;SDS011;6152;48.728;9.256;2023-02-28T05:43:24;5.03;;;3.93;;
12177;SDS011;6152;48.728;9.256;2023-02-28T05:45:50;7.57;;;4.00;;
12177;SDS011;6152;48.728;9.256;2023-02-28T05:48:16;6.33;;;4.33;;
12177;SDS011;6152;48.728;9.256;2023-02-28T05:50:43;5.23;;;3.70;;
12177;SDS011;6152;48.728;9.256;2023-02-28T05:53:11;6.17;;;3.80;;
12177;SDS011;6152;48.728;9.256;2023-02-28T05:55:37;5.70;;;3.33;;
12177;SDS011;6152;48.728;9.256;2023-02-28T05:58:03;5.33;;;3.27;;
12177;SDS011;6152;48.728;9.256;2023-02-28T06:00:29;6.07;;;4.20;;
12177;SDS011;6152;48.728;9.256;2023-02-28T06:02:55;5.33;;;3.47;;
12177;SDS011;6152;48.728;9.256;2023-02-28T06:05:24;6.73;;;4.03;;
12177;SDS011;6152;48.728;9.256;2023-02-28T06:07:50;7.37;;;4.37;;
12177;SDS011;6152;48.728;9.256;2023-02-28T06:10:17;6.93;;;4.37;;
12177;SDS011;6152;48.728;9.256;2023-02-28T06:12:43;6.70;;;4.10;;
12177;SDS011;6152;48.728;9.256;2023-02-28T06:15:13;10.53;;;4.13;;
12177;SDS011;6152;48.728;9.256;2023-02-28T06:17:41;7.13;;;4.40;;
12177;SDS011;6152;48.728;9.256;2023-02-28T06:20:08;9.33;;;5.00;;
12177;SDS011;6152;48.728;9.256;2023-02-28T06:22:37;6.00;;;4.47;;
12177;SDS011;6152;48.728;9.256;2023-02-28T06:25:05;8.20;;;4.70;;
12177;SDS011;6152;48.728;9.256;2023-02-28T06:27:47;5.70;;;4.30;;
12177;SDS011;6152;48.728;9.256;2023-02-28T06:30:14;6.70;;;4.73;;
12177;SDS011;6152;48.728;9.256;2023-02-28T06:32:40;6.03;;;4.23;;
12177;SDS011;6152;48.728;9.256;2023-02-28T06:35:06;6.30;;;4.90;;
12177;SDS011;6152;48.728;9.256;2023-02-28T06:38:05;8.27;;;4.50;;
12177;SDS011;6152;48.728;9.256;2023-02-28T06:40:31;5.17;;;4.13;;
12177;SDS011;6152;48.728;9.256;2023-02-28T06:43:00;8.53;;;4.57;;
12177;SDS011;6152;48.728;9.256;2023-02-28T06:45:26;6.20;;;4.27;;
12177;SDS011;6152;48.728;9.256;2023-02-28T06:47:52;5.97;;;4.83;;
12177;SDS011;6152;48.728;9.256;2023-02-28T06:50:18;8.23;;;4.97;;
12177;SDS011;6152;48.728;9.256;2023-02-28T06:52:45;6.30;;;4.73;;
12177;SDS011;6152;48.728;9.256;2023-02-28T06:55:11;8.10;;;4.57;;
12177;SDS011;6152;48.728;9.256;2023-02-28T06:57:38;5.73;;;4.60;;
12177;SDS011;6152;48.728;9.256;2023-02-28T07:00:07;9.63;;;4.87;;
12177;SDS011;6152;48.728;9.256;2023-02-28T07:02:35;7.70;;;5.13;;
12177;SDS011;6152;48.728;9.256;2023-02-28T07:05:02;7.83;;;4.77;;
12177;SDS011;6152;48.728;9.256;2023-02-28T07:07:29;5.87;;;4.80;;
12177;SDS011;6152;48.728;9.256;2023-02-28T07:09:55;6.77;;;4.93;;
12177;SDS011;6152;48.728;9.256;2023-02-28T07:12:22;10.23;;;4.47;;
12177;SDS011;6152;48.728;9.256;2023-02-28T07:14:48;7.80;;;5.00;;
12177;SDS011;6152;48.728;9.256;2023-02-28T07:17:14;7.53;;;4.97;;
12177;SDS011;6152;48.728;9.256;2023-02-28T07:19:40;5.67;;;4.33;;
12177;SDS011;6152;48.728;9.256;2023-02-28T07:22:06;7.40;;;5.00;;
12177;SDS011;6152;48.728;9.256;2023-02-28T07:24:32;7.30;;;5.07;;
12177;SDS011;6152;48.728;9.256;2023-02-28T07:26:59;7.23;;;5.07;;
12177;SDS011;6152;48.728;9.256;2023-02-28T07:29:26;7.07;;;4.57;;
12177;SDS011;6152;48.728;9.256;2023-02-28T07:31:52;8.10;;;4.70;;
12177;SDS011;6152;48.728;9.256;2023-02-28T07:34:22;7.03;;;4.40;;
12177;SDS011;6152;48.728;9.256;2023-02-28T07:36:48;7.60;;;5.13;;
12177;SDS011;6152;48.728;9.256;2023-02-28T07:39:18;6.33;;;4.43;;
12177;SDS011;6152;48.728;9.256;2023-02-28T07:41:45;7.87;;;5.03;;
12177;SDS011;6152;48.728;9.256;2023-02-28T07:44:11;7.87;;;5.27;;
12177;SDS011;6152;48.728;9.256;2023-02-28T07:46:37;8.50;;;4.97;;
12177;SDS011;6152;48.728;9.256;2023-02-28T07:49:04;9.03;;;5.40;;
12177;SDS011;6152;48.728;9.256;2023-02-28T07:51:30;7.50;;;5.00;;
12177;SDS011;6152;48.728;9.256;2023-02-28T07:53:56;8.47;;;5.40;;
12177;SDS011;6152;48.728;9.256;2023-02-28T07:56:23;8.03;;;5.07;;
12177;SDS011;6152;48.728;9.256;2023-02-28T07:58:49;9.57;;;5.57;;
12177;SDS011;6152;48.728;9.256;2023-02-28T08:01:15;8.87;;;5.23;;
12177;SDS011;6152;48.728;9.256;2023-02-28T08:03:42;7.83;;;5.03;;
12177;SDS011;6152;48.728;9.256;2023-02-28T08:06:13;8.77;;;5.30;;
12177;SDS011;6152;48.728;9.256;2023-02-28T08:08:45;9.87;;;6.23;;
12177;SDS011;6152;48.728;9.256;2023-02-28T08:11:11;8.33;;;5.43;;
12177;SDS011;6152;48.728;9.256;2023-02-28T08:13:38;7.90;;;4.73;;
12177;SDS011;6152;48.728;9.256;2023-02-28T08:16:04;8.47;;;5.83;;
12177;SDS011;6152;48.728;9.256;2023-02-28T08:18:32;7.70;;;5.07;;
12177;SDS011;6152;48.728;9.256;2023-02-28T08:20:58;8.73;;;5.47;;
12177;SDS011;6152;48.728;9.256;2023-02-28T08:23:24;8.07;;;4.87;;
12177;SDS011;6152;48.728;9.256;2023-02-28T08:25:54;9.40;;;5.50;;
12177;SDS011;6152;48.728;9.256;2023-02-28T08:28:21;7.30;;;5.57;;
12177;SDS011;6152;48.728;9.256;2023-02-28T08:30:47;11.27;;;5.30;;
12177;SDS011;6152;48.728;9.256;2023-02-28T08:33:14;8.87;;;5.30;;
12177;SDS011;6152;48.728;9.256;2023-02-28T08:35:40;8.87;;;5.33;;
12177;SDS011;6152;48.728;9.256;2023-02-28T08:38:06;8.47;;;5.37;;
12177;SDS011;6152;48.728;9.256;2023-02-28T08:40:32;10.30;;;5.10;;
12177;SDS011;6152;48.728;9.256;2023-02-28T08:42:58;8.60;;;6.00;;
12177;SDS011;6152;48.728;9.256;2023-02-28T08:45:24;8.93;;;5.73;;
12177;SDS011;6152;48.728;9.256;2023-02-28T08:47:51;8.73;;;5.90;;
12177;SDS011;6152;48.728;9.256;2023-02-28T08:50:18;9.63;;;6.13;;
12177;SDS011;6152;48.728;9.256;2023-02-28T08:52:44;7.53;;;5.13;;
12177;SDS011;6152;48.728;9.256;2023-02-28T08:55:11;8.47;;;5.60;;
12177;SDS011;6152;48.728;9.256;2023-02-28T08:57:37;8.67;;;5.73;;
12177;SDS011;6152;48.728;9.256;2023-02-28T09:00:03;8.47;;;5.43;;
12177;SDS011;6152;48.728;9.256;2023-02-28T09:02:30;8.37;;;5.67;;
12177;SDS011;6152;48.728;9.256;2023-02-28T09:04:56;8.33;;;5.67;;
12177;SDS011;6152;48.728;9.256;2023-02-28T09:07:23;7.77;;;4.93;;
12177;SDS011;6152;48.728;9.256;2023-02-28T09:09:49;8.03;;;5.37;;
12177;SDS011;6152;48.728;9.256;2023-02-28T09:12:22;9.23;;;6.43;;
12177;SDS011;6152;48.728;9.256;2023-02-28T09:14:49;8.80;;;5.37;;
12177;SDS011;6152;48.728;9.256;2023-02-28T09:17:16;8.57;;;5.30;;
12177;SDS011;6152;48.728;9.256;2023-02-28T09:19:43;7.43;;;5.63;;
12177;SDS011;6152;48.728;9.256;2023-02-28T09:22:09;9.07;;;5.93;;
12177;SDS011;6152;48.728;9.256;2023-02-28T09:24:36;6.87;;;5.47;;
12177;SDS011;6152;48.728;9.256;2023-02-28T09:27:03;9.20;;;5.73;;
12177;SDS011;6152;48.728;9.256;2023-02-28T09:29:30;10.90;;;6.57;;
12177;SDS011;6152;48.728;9.256;2023-02-28T09:31:57;9.07;;;6.00;;
12177;SDS011;6152;48.728;9.256;2023-02-28T09:34:24;11.03;;;5.73;;
12177;SDS011;6152;48.728;9.256;2023-02-28T09:36:51;9.50;;;5.50;;
12177;SDS011;6152;48.728;9.256;2023-02-28T09:39:19;7.93;;;5.53;;
12177;SDS011;6152;48.728;9.256;2023-02-28T09:41:47;8.57;;;5.83;;
12177;SDS011;6152;48.728;9.256;2023-02-28T09:44:19;8.83;;;6.03;;
12177;SDS011;6152;48.728;9.256;2023-02-28T09:47:05;9.10;;;5.70;;
12177;SDS011;6152;48.728;9.256;2023-02-28T09:49:53;8.57;;;5.83;;
12177;SDS011;6152;48.728;9.256;2023-02-28T09:52:24;8.47;;;5.77;;
12177;SDS011;6152;48.728;9.256;2023-02-28T09:55:18;8.80;;;6.27;;
12177;SDS011;6152;48.728;9.256;2023-02-28T09:57:45;10.13;;;6.57;;
12177;SDS011;6152;48.728;9.256;2023-02-28T10:00:18;8.50;;;6.13;;
12177;SDS011;6152;48.728;9.256;2023-02-28T10:05:38;8.87;;;5.67;;
12177;SDS011;6152;48.728;9.256;2023-02-28T10:08:29;7.03;;;5.13;;
12177;SDS011;6152;48.728;9.256;2023-02-28T10:11:06;11.63;;;6.22;;
12177;SDS011;6152;48.728;9.256;2023-02-28T10:13:39;8.90;;;6.17;;
12177;SDS011;6152;48.728;9.256;2023-02-28T10:16:13;9.80;;;5.33;;
12177;SDS011;6152;48.728;9.256;2023-02-28T10:18:47;9.93;;;6.05;;
12177;SDS011;6152;48.728;9.256;2023-02-28T10:21:35;9.65;;;6.88;;
12177;SDS011;6152;48.728;9.256;2023-02-28T10:24:05;9.70;;;5.70;;
12177;SDS011;6152;48.728;9.256;2023-02-28T10:26:45;11.80;;;6.05;;
12177;SDS011;6152;48.728;9.256;2023-02-28T10:29:13;7.03;;;5.00;;
12177;SDS011;6152;48.728;9.256;2023-02-28T10:31:40;12.55;;;6.47;;
12177;SDS011;6152;48.728;9.256;2023-02-28T10:34:07;8.60;;;6.45;;
12177;SDS011;6152;48.728;9.256;2023-02-28T10:36:35;8.93;;;5.95;;
12177;SDS011;6152;48.728;9.256;2023-02-28T10:39:01;8.52;;;5.85;;
12177;SDS011;6152;48.728;9.256;2023-02-28T10:47:48;13.25;;;6.60;;
12177;SDS011;6152;48.728;9.256;2023-02-28T10:50:28;7.68;;;5.45;;
12177;SDS011;6152;48.728;9.256;2023-02-28T10:53:05;9.38;;;6.82;;
12177;SDS011;6152;48.728;9.256;2023-02-28T10:55:58;9.60;;;6.43;;
12177;SDS011;6152;48.728;9.256;2023-02-28T10:58:29;10.05;;;7.15;;
12177;SDS011;6152;48.728;9.256;2023-02-28T11:01:14;11.70;;;6.20;;
12177;SDS011;6152;48.728;9.256;2023-02-28T11:03:43;6.97;;;5.25;;
12177;SDS011;6152;48.728;9.256;2023-02-28T11:06:17;7.63;;;5.68;;
12177;SDS011;6152;48.728;9.256;2023-02-28T11:08:49;8.73;;;6.30;;
12177;SDS011;6152;48.728;9.256;2023-02-28T11:11:21;8.43;;;6.28;;
12177;SDS011;6152;48.728;9.256;2023-02-28T11:13:51;9.63;;;6.72;;
12177;SDS011;6152;48.728;9.256;2023-02-28T11:16:20;7.15;;;5.70;;
12177;SDS011;6152;48.728;9.256;2023-02-28T11:18:50;9.48;;;6.25;;
12177;SDS011;6152;48.728;9.256;2023-02-28T11:23:52;7.03;;;6.25;;
12177;SDS011;6152;48.728;9.256;2023-02-28T11:26:45;7.75;;;6.50;;
12177;SDS011;6152;48.728;9.256;2023-02-28T11:29:29;6.28;;;5.68;;
12177;SDS011;6152;48.728;9.256;2023-02-28T11:32:11;6.53;;;5.93;;
12177;SDS011;6152;48.728;9.256;2023-02-28T11:34:41;6.78;;;5.65;;
12177;SDS011;6152;48.728;9.256;2023-02-28T11:37:12;7.05;;;6.10;;
12177;SDS011;6152;48.728;9.256;2023-02-28T11:39:44;6.88;;;6.18;;
12177;SDS011;6152;48.728;9.256;2023-02-28T11:45:00;6.55;;;5.60;;
12177;SDS011;6152;48.728;9.256;2023-02-28T11:56:31;6.82;;;6.07;;
12177;SDS011;6152;48.728;9.256;2023-02-28T12:01:58;7.03;;;5.60;;
12177;SDS011;6152;48.728;9.256;2023-02-28T12:04:59;6.82;;;6.15;;
12177;SDS011;6152;48.728;9.256;2023-02-28T12:13:00;6.90;;;5.97;;
12177;SDS011;6152;48.728;9.256;2023-02-28T12:31:53;6.55;;;5.95;;
12177;SDS011;6152;48.728;9.256;2023-02-28T12:34:28;6.50;;;5.90;;
12177;SDS011;6152;48.728;9.256;2023-02-28T12:37:01;9.00;;;6.32;;
12177;SDS011;6152;48.728;9.256;2023-02-28T12:39:37;8.45;;;6.57;;
12177;SDS011;6152;48.728;9.256;2023-02-28T12:42:10;7.82;;;7.07;;
12177;SDS011;6152;48.728;9.256;2023-02-28T12:44:54;7.68;;;6.88;;
12177;SDS011;6152;48.728;9.256;2023-02-28T12:47:42;6.57;;;5.93;;
12177;SDS011;6152;48.728;9.256;2023-02-28T12:50:12;7.32;;;6.55;;
12177;SDS011;6152;48.728;9.256;2023-02-28T12:55:27;7.18;;;6.47;;
12177;SDS011;6152;48.728;9.256;2023-02-28T13:09:05;7.30;;;6.63;;
12177;SDS011;6152;48.728;9.256;2023-02-28T13:12:12;7.35;;;6.60;;
12177;SDS011;6152;48.728;9.256;2023-02-28T13:14:41;7.30;;;6.55;;
12177;SDS011;6152;48.728;9.256;2023-02-28T13:19:37;9.45;;;6.70;;
12177;SDS011;6152;48.728;9.256;2023-02-28T13:25:00;8.38;;;5.93;;
12177;SDS011;6152;48.728;9.256;2023-02-28T13:27:37;8.35;;;6.05;;
12177;SDS011;6152;48.728;9.256;2023-02-28T13:33:31;7.35;;;6.35;;
12177;SDS011;6152;48.728;9.256;2023-02-28T13:44:16;8.07;;;6.30;;
12177;SDS011;6152;48.728;9.256;2023-02-28T13:49:19;8.27;;;6.15;;
12177;SDS011;6152;48.728;9.256;2023-02-28T13:57:27;8.50;;;6.35;;
12177;SDS011;6152;48.728;9.256;2023-02-28T14:02:48;9.05;;;6.22;;
12177;SDS011;6152;48.728;9.256;2023-02-28T14:05:36;8.38;;;6.40;;
12177;SDS011;6152;48.728;9.256;2023-02-28T14:10:46;8.60;;;6.35;;
12177;SDS011;6152;48.728;9.256;2023-02-28T14:13:44;8.45;;;5.95;;
12177;SDS011;6152;48.728;9.256;2023-02-28T14:16:54;10.02;;;5.75;;
12177;SDS011;6152;48.728;9.256;2023-02-28T14:21:56;9.10;;;6.03;;
12177;SDS011;6152;48.728;9.256;2023-02-28T14:35:22;7.88;;;5.93;;
12177;SDS011;6152;48.728;9.256;2023-02-28T14:38:06;7.35;;;5.68;;
12177;SDS011;6152;48.728;9.256;2023-02-28T14:40:39;8.02;;;6.07;;
12177;SDS011;6152;48.728;9.256;2023-02-28T14:43:06;8.75;;;6.40;;
12177;SDS011;6152;48.728;9.256;2023-02-28T14:45:48;9.70;;;6.85;;
12177;SDS011;6152;48.728;9.256;2023-02-28T14:48:17;9.15;;;6.60;;
12177;SDS011;6152;48.728;9.256;2023-02-28T14:50:56;8.63;;;6.18;;
12177;SDS011;6152;48.728;9.256;2023-02-28T14:53:25;9.18;;;6.68;;
12177;SDS011;6152;48.728;9.256;2023-02-28T14:55:59;9.70;;;6.57;;
12177;SDS011;6152;48.728;9.256;2023-02-28T14:58:27;9.23;;;5.82;;
12177;SDS011;6152;48.728;9.256;2023-02-28T15:00:59;8.88;;;6.28;;
12177;SDS011;6152;48.728;9.256;2023-02-28T15:05:59;7.18;;;5.38;;
12177;SDS011;6152;48.728;9.256;2023-02-28T15:08:27;12.32;;;6.13;;
12177;SDS011;6152;48.728;9.256;2023-02-28T15:13:28;8.55;;;5.75;;
12177;SDS011;6152;48.728;9.256;2023-02-28T15:16:02;7.60;;;5.88;;
12177;SDS011;6152;48.728;9.256;2023-02-28T15:21:29;8.45;;;6.22;;
12177;SDS011;6152;48.728;9.256;2023-02-28T15:24:00;9.10;;;6.10;;
12177;SDS011;6152;48.728;9.256;2023-02-28T15:26:53;8.95;;;6.07;;
12177;SDS011;6152;48.728;9.256;2023-02-28T15:29:26;8.45;;;6.05;;
12177;SDS011;6152;48.728;9.256;2023-02-28T15:31:56;8.70;;;6.22;;
12177;SDS011;6152;48.728;9.256;2023-02-28T15:39:55;7.18;;;5.43;;
12177;SDS011;6152;48.728;9.256;2023-02-28T15:42:29;10.27;;;6.47;;
12177;SDS011;6152;48.728;9.256;2023-02-28T15:44:56;8.45;;;6.03;;
12177;SDS011;6152;48.728;9.256;2023-02-28T15:47:25;9.38;;;6.25;;
12177;SDS011;6152;48.728;9.256;2023-02-28T15:57:44;10.13;;;6.00;;
12177;SDS011;6152;48.728;9.256;2023-02-28T16:00:12;8.95;;;6.45;;
12177;SDS011;6152;48.728;9.256;2023-02-28T16:02:43;7.50;;;5.82;;
12177;SDS011;6152;48.728;9.256;2023-02-28T16:07:36;9.30;;;6.63;;
12177;SDS011;6152;48.728;9.256;2023-02-28T16:10:04;8.80;;;6.18;;
12177;SDS011;6152;48.728;9.256;2023-02-28T16:12:33;9.23;;;6.43;;
12177;SDS011;6152;48.728;9.256;2023-02-28T16:17:51;10.57;;;6.90;;
12177;SDS011;6152;48.728;9.256;2023-02-28T16:22:46;11.98;;;7.57;;
12177;SDS011;6152;48.728;9.256;2023-02-28T16:25:13;10.15;;;6.93;;
12177;SDS011;6152;48.728;9.256;2023-02-28T16:27:40;8.93;;;6.80;;
12177;SDS011;6152;48.728;9.256;2023-02-28T16:30:19;10.05;;;6.90;;
12177;SDS011;6152;48.728;9.256;2023-02-28T16:32:50;12.95;;;7.15;;
12177;SDS011;6152;48.728;9.256;2023-02-28T16:35:18;8.75;;;6.28;;
12177;SDS011;6152;48.728;9.256;2023-02-28T16:37:45;8.43;;;6.40;;
12177;SDS011;6152;48.728;9.256;2023-02-28T16:40:15;9.23;;;6.75;;
12177;SDS011;6152;48.728;9.256;2023-02-28T16:42:45;11.30;;;6.68;;
12177;SDS011;6152;48.728;9.256;2023-02-28T16:45:18;10.63;;;7.20;;
12177;SDS011;6152;48.728;9.256;2023-02-28T16:47:48;9.80;;;6.60;;
12177;SDS011;6152;48.728;9.256;2023-02-28T16:50:16;11.23;;;7.15;;
12177;SDS011;6152;48.728;9.256;2023-02-28T16:52:44;10.35;;;6.43;;
12177;SDS011;6152;48.728;9.256;2023-02-28T16:55:10;9.68;;;6.47;;
12177;SDS011;6152;48.728;9.256;2023-02-28T16:57:37;14.20;;;9.13;;
12177;SDS011;6152;48.728;9.256;2023-02-28T17:00:06;12.80;;;7.00;;
12177;SDS011;6152;48.728;9.256;2023-02-28T17:02:37;9.77;;;6.82;;
12177;SDS011;6152;48.728;9.256;2023-02-28T17:05:03;8.18;;;6.03;;
12177;SDS011;6152;48.728;9.256;2023-02-28T17:07:30;9.43;;;6.72;;
12177;SDS011;6152;48.728;9.256;2023-02-28T17:09:56;10.98;;;7.15;;
12177;SDS011;6152;48.728;9.256;2023-02-28T17:12:22;12.95;;;7.93;;
12177;SDS011;6152;48.728;9.256;2023-02-28T17:14:48;10.93;;;7.72;;
12177;SDS011;6152;48.728;9.256;2023-02-28T17:17:18;11.98;;;7.57;;
12177;SDS011;6152;48.728;9.256;2023-02-28T17:19:46;12.00;;;6.93;;
12177;SDS011;6152;48.728;9.256;2023-02-28T17:22:13;10.48;;;7.15;;
12177;SDS011;6152;48.728;9.256;2023-02-28T17:24:39;11.30;;;7.30;;
12177;SDS011;6152;48.728;9.256;2023-02-28T17:27:05;9.05;;;6.68;;
12177;SDS011;6152;48.728;9.256;2023-02-28T17:29:34;9.75;;;6.65;;
12177;SDS011;6152;48.728;9.256;2023-02-28T17:32:00;10.63;;;7.57;;
12177;SDS011;6152;48.728;9.256;2023-02-28T17:34:26;9.50;;;7.03;;
12177;SDS011;6152;48.728;9.256;2023-02-28T17:36:52;9.73;;;6.50;;
12177;SDS011;6152;48.728;9.256;2023-02-28T17:39:18;9.93;;;6.47;;
12177;SDS011;6152;48.728;9.256;2023-02-28T17:41:49;8.65;;;6.55;;
12177;SDS011;6152;48.728;9.256;2023-02-28T17:44:20;11.65;;;6.60;;
12177;SDS011;6152;48.728;9.256;2023-02-28T17:46:47;12.20;;;8.35;;
12177;SDS011;6152;48.728;9.256;2023-02-28T17:49:14;10.75;;;7.32;;
12177;SDS011;6152;48.728;9.256;2023-02-28T17:51:41;8.52;;;6.65;;
12177;SDS011;6152;48.728;9.256;2023-02-28T17:54:07;11.02;;;7.03;;
12177;SDS011;6152;48.728;9.256;2023-02-28T17:56:33;10.00;;;6.85;;
12177;SDS011;6152;48.728;9.256;2023-02-28T17:59:00;11.23;;;7.35;;
12177;SDS011;6152;48.728;9.256;2023-02-28T18:01:29;11.33;;;7.60;;
12177;SDS011;6152;48.728;9.256;2023-02-28T18:03:55;7.78;;;6.03;;
12177;SDS011;6152;48.728;9.256;2023-02-28T18:08:53;9.80;;;6.73;;
12177;SDS011;6152;48.728;9.256;2023-02-28T18:11:20;9.63;;;6.85;;
12177;SDS011;6152;48.728;9.256;2023-02-28T18:13:49;9.63;;;6.80;;